This is the latest recevied weather packets stored in our database for station/object OK1KZE-6. If no packets are shown the sender has not sent any weather packets the latest 10 day(s).
| Time | Temp. | Humidity | Pressure | Rain* | Wind** | Luminosity | Snow |
|---|---|---|---|---|---|---|---|
| 1777935607 | 15° C | 74% | 1013.8 hPa | - | - | - | - |
| 1777935307 | 15° C | 74% | 1013.9 hPa | - | - | - | - |
| 1777935008 | 15.56° C | 71% | 1014.1 hPa | - | - | - | - |
| 1777934708 | 15.56° C | 69% | 1014.1 hPa | - | - | - | - |
| 1777934407 | 16.11° C | 65% | 1014.3 hPa | - | - | - | - |
| 1777934106 | 17.22° C | 61% | 1014.5 hPa | - | - | - | - |
| 1777933807 | 17.22° C | 60% | 1014.6 hPa | - | - | - | - |
| 1777933507 | 16.11° C | 65% | 1014.8 hPa | - | - | - | - |
| 1777933207 | 16.11° C | 64% | 1015 hPa | - | - | - | - |
| 1777932908 | 16.67° C | 62% | 1015.1 hPa | - | - | - | - |
| 1777932607 | 16.11° C | 64% | 1014.9 hPa | - | - | - | - |
| 1777932308 | 16.67° C | 60% | 1014.9 hPa | - | - | - | - |
| 1777932008 | 16.11° C | 62% | 1014.4 hPa | - | - | - | - |
| 1777931707 | 18.33° C | 53% | 1014.1 hPa | - | - | - | - |
| 1777931408 | 18.89° C | 50% | 1014 hPa | - | - | - | - |
| 1777931108 | 18.89° C | 51% | 1013.7 hPa | - | - | - | - |
| 1777930808 | 18.89° C | 49% | 1013.9 hPa | - | - | - | - |
| 1777930508 | 18.89° C | 50% | 1014 hPa | - | - | - | - |
| 1777930209 | 18.89° C | 50% | 1013.6 hPa | - | - | - | - |
| 1777929908 | 18.89° C | 49% | 1013.9 hPa | - | - | - | - |
| 1777929607 | 18.89° C | 49% | 1013.8 hPa | - | - | - | - |
| 1777929308 | 18.89° C | 49% | 1013.9 hPa | - | - | - | - |
| 1777929007 | 18.89° C | 49% | 1013.9 hPa | - | - | - | - |
| 1777928708 | 18.89° C | 49% | 1013.8 hPa | - | - | - | - |
| 1777928408 | 18.89° C | 50% | 1014 hPa | - | - | - | - |
* Rain since midnight (hover to see other rain measurements)
** Current wind speed in m/s (hover to see current wind gust speed)